Time;durP1;ratioP1;P1;durP2;ratioP2;P2;SDS_P1;SDS_P2;PMS_P1;PMS_P2;Temp;Humidity;BMP_temperature;BMP_pressure;BME280_temperature;BME280_humidity;BME280_pressure;Samples;Min_cycle;Max_cycle;Signal;HPM_P1;HPM_P2
2023/08/30 00:02:05;;;;;;;7.53;3.77;;;11.30;99.90;;;;;;5013689;28;20669;-65
2023/08/30 00:04:30;;;;;;;9.80;3.40;;;11.30;99.90;;;;;;5011800;28;20211;-65
2023/08/30 00:06:56;;;;;;;8.73;3.87;;;11.30;99.90;;;;;;5013001;28;20189;-65
2023/08/30 00:09:21;;;;;;;5.90;3.60;;;11.30;99.90;;;;;;5013434;28;20199;-65
2023/08/30 00:11:47;;;;;;;6.20;3.90;;;11.30;99.90;;;;;;5013423;28;20264;-65
2023/08/30 00:14:12;;;;;;;6.63;3.60;;;11.30;99.90;;;;;;5013067;28;20220;-65
2023/08/30 00:16:38;;;;;;;6.70;4.50;;;11.30;99.90;;;;;;5013528;28;20198;-65
2023/08/30 00:19:03;;;;;;;7.40;4.33;;;11.40;99.90;;;;;;5012696;28;20638;-65
2023/08/30 00:21:29;;;;;;;8.57;4.60;;;11.50;99.90;;;;;;5013278;28;20181;-65
2023/08/30 00:23:54;;;;;;;9.97;4.60;;;11.50;99.90;;;;;;5013142;28;20208;-65
2023/08/30 00:26:20;;;;;;;6.60;4.30;;;11.50;99.90;;;;;;5013463;28;20259;-65
2023/08/30 00:28:46;;;;;;;8.83;4.43;;;11.50;99.90;;;;;;5012277;28;20203;-65
2023/08/30 00:31:11;;;;;;;9.03;4.53;;;11.40;99.90;;;;;;5013065;28;20319;-65
2023/08/30 00:33:37;;;;;;;6.63;4.37;;;11.40;99.90;;;;;;5012895;28;20227;-65
2023/08/30 00:36:03;;;;;;;7.03;4.20;;;11.50;99.90;;;;;;5013142;28;20180;-65
2023/08/30 00:38:29;;;;;;;10.17;4.47;;;11.50;99.90;;;;;;5011035;28;20208;-65
2023/08/30 00:40:54;;;;;;;6.50;3.87;;;11.50;99.90;;;;;;5012929;28;20176;-65
2023/08/30 00:43:20;;;;;;;5.80;4.00;;;11.50;99.90;;;;;;5012654;28;20200;-65
2023/08/30 00:45:46;;;;;;;10.13;4.70;;;11.60;99.90;;;;;;5012795;28;20185;-65
2023/08/30 00:48:11;;;;;;;15.87;4.77;;;11.50;99.90;;;;;;5009780;28;20216;-65
2023/08/30 00:50:37;;;;;;;9.87;5.10;;;11.60;99.90;;;;;;5012789;28;20219;-65
2023/08/30 00:53:05;;;;;;;10.83;4.40;;;11.60;99.90;;;;;;5011386;28;20196;-65
2023/08/30 00:55:34;;;;;;;11.30;4.63;;;11.60;99.90;;;;;;5011344;28;20204;-65
2023/08/30 00:58:01;;;;;;;8.20;4.40;;;11.60;99.90;;;;;;5011719;28;20173;-65
2023/08/30 01:00:28;;;;;;;7.13;4.60;;;11.60;99.90;;;;;;5010321;28;20172;-65
2023/08/30 01:02:54;;;;;;;10.70;4.27;;;11.60;99.90;;;;;;5012348;28;20169;-65
2023/08/30 01:05:20;;;;;;;8.07;4.70;;;11.60;99.90;;;;;;5012526;28;20188;-65
2023/08/30 01:07:45;;;;;;;7.57;4.50;;;11.60;99.90;;;;;;5011703;28;20172;-65
2023/08/30 01:10:11;;;;;;;10.33;4.43;;;11.60;99.90;;;;;;5010760;28;20546;-65
2023/08/30 01:13:04;;;;;;;8.37;4.40;;;11.60;99.90;;;;;;5012049;28;20637;-65
2023/08/30 01:15:29;;;;;;;7.63;4.30;;;11.60;99.90;;;;;;5012267;28;20250;-65
2023/08/30 01:17:55;;;;;;;6.17;4.13;;;11.60;99.90;;;;;;5010242;28;20173;-66
2023/08/30 01:20:22;;;;;;;6.80;4.47;;;11.60;99.90;;;;;;5010993;28;20632;-65
2023/08/30 01:23:09;;;;;;;8.63;4.50;;;11.60;99.90;;;;;;5011948;28;20681;-65
2023/08/30 01:25:55;;;;;;;12.10;4.50;;;11.60;99.90;;;;;;5012049;28;20582;-65
2023/08/30 01:28:24;;;;;;;9.27;4.80;;;11.60;99.90;;;;;;5009983;28;20180;-65
2023/08/30 01:30:50;;;;;;;9.07;4.63;;;11.60;99.90;;;;;;5010861;28;20319;-65
2023/08/30 01:33:17;;;;;;;8.03;4.77;;;11.60;99.90;;;;;;5010651;28;20196;-65
2023/08/30 01:35:43;;;;;;;7.33;4.40;;;11.60;99.90;;;;;;5010619;28;20275;-65
2023/08/30 01:38:08;;;;;;;8.13;4.37;;;11.60;99.90;;;;;;5010230;28;20599;-65
2023/08/30 01:40:37;;;;;;;7.80;4.83;;;11.60;99.90;;;;;;4994205;28;20168;-65
2023/08/30 01:43:05;;;;;;;10.90;4.50;;;11.50;99.90;;;;;;5010371;28;20200;-65
2023/08/30 01:45:32;;;;;;;10.53;4.50;;;11.50;99.90;;;;;;5010581;28;20588;-65
2023/08/30 01:47:57;;;;;;;6.67;4.70;;;11.50;99.90;;;;;;5009694;28;20609;-65
2023/08/30 01:50:23;;;;;;;8.33;4.70;;;11.50;99.90;;;;;;5011562;28;20204;-65
2023/08/30 01:52:48;;;;;;;6.83;4.17;;;11.50;99.90;;;;;;5010257;28;20645;-65
2023/08/30 01:55:14;;;;;;;9.33;4.33;;;11.50;99.90;;;;;;5010538;28;20732;-65
2023/08/30 01:57:39;;;;;;;12.37;4.53;;;11.50;99.90;;;;;;5009899;28;20180;-65
2023/08/30 02:00:06;;;;;;;9.40;4.70;;;11.50;99.90;;;;;;5010180;28;20251;-65
2023/08/30 02:02:32;;;;;;;8.00;4.43;;;11.50;99.90;;;;;;5011344;28;20188;-65
2023/08/30 02:04:57;;;;;;;7.73;4.53;;;11.50;99.90;;;;;;5010344;28;20200;-65
2023/08/30 02:07:58;;;;;;;8.63;4.40;;;11.50;99.90;;;;;;5009429;28;20533;-65
2023/08/30 02:10:34;;;;;;;5.57;4.27;;;11.50;99.90;;;;;;4993175;28;20188;-65
2023/08/30 02:13:00;;;;;;;8.00;5.00;;;11.50;99.90;;;;;;5011049;28;20263;-66
2023/08/30 02:15:25;;;;;;;6.20;3.80;;;11.50;99.90;;;;;;5011282;28;20258;-65
2023/08/30 02:17:51;;;;;;;8.90;3.93;;;11.50;99.90;;;;;;5007861;28;20196;-65
2023/08/30 02:20:16;;;;;;;10.40;4.50;;;11.50;99.90;;;;;;5010114;28;20218;-65
2023/08/30 02:22:42;;;;;;;6.37;4.27;;;11.50;99.90;;;;;;5009973;28;20200;-65
2023/08/30 02:25:08;;;;;;;8.37;4.47;;;11.60;99.90;;;;;;5011168;28;20264;-65
2023/08/30 02:27:34;;;;;;;8.30;4.40;;;11.50;99.90;;;;;;5010290;28;20664;-65
2023/08/30 02:30:00;;;;;;;6.43;4.13;;;11.50;99.90;;;;;;5010984;28;20276;-65
2023/08/30 02:32:25;;;;;;;7.63;4.63;;;11.50;99.90;;;;;;5011088;28;20287;-66
2023/08/30 02:34:52;;;;;;;9.10;4.20;;;11.50;99.90;;;;;;5010934;28;20247;-65
2023/08/30 02:37:18;;;;;;;6.17;4.27;;;11.50;99.90;;;;;;5009136;28;20172;-65
2023/08/30 02:39:43;;;;;;;6.33;4.10;;;11.50;99.90;;;;;;4993378;28;20177;-65
2023/08/30 02:42:09;;;;;;;5.67;4.03;;;11.50;99.90;;;;;;5010944;28;20203;-65
2023/08/30 02:44:35;;;;;;;10.50;5.20;;;11.50;99.90;;;;;;5009519;28;20200;-65
2023/08/30 02:47:00;;;;;;;9.10;4.27;;;11.40;99.90;;;;;;5010273;28;20180;-65
2023/08/30 02:49:26;;;;;;;9.53;3.80;;;11.40;99.90;;;;;;5010981;28;20186;-65
2023/08/30 02:51:51;;;;;;;7.30;3.97;;;11.40;99.90;;;;;;5010815;28;20275;-65
2023/08/30 02:54:17;;;;;;;6.77;3.70;;;11.30;99.90;;;;;;5010765;28;20283;-65
2023/08/30 02:56:43;;;;;;;7.73;3.53;;;11.30;99.90;;;;;;5010269;28;20227;-65
2023/08/30 02:59:09;;;;;;;6.03;3.53;;;11.30;99.90;;;;;;5010860;28;20180;-65
2023/08/30 03:01:35;;;;;;;7.83;3.70;;;11.20;99.90;;;;;;5010836;28;20192;-65
2023/08/30 03:04:01;;;;;;;8.10;3.43;;;11.20;99.90;;;;;;5009451;28;20201;-65
2023/08/30 03:06:26;;;;;;;8.23;2.90;;;11.30;99.90;;;;;;5010660;28;20180;-65
2023/08/30 03:08:53;;;;;;;8.03;3.60;;;11.30;99.90;;;;;;5010087;28;20263;-65
2023/08/30 03:11:19;;;;;;;4.90;3.40;;;11.20;99.90;;;;;;5010721;28;20189;-65
2023/08/30 03:13:44;;;;;;;4.73;3.07;;;11.20;99.90;;;;;;5010349;28;20282;-65
2023/08/30 03:16:14;;;;;;;7.67;3.83;;;11.20;99.90;;;;;;5010667;28;20187;-65
2023/08/30 03:18:39;;;;;;;7.67;3.70;;;11.20;99.90;;;;;;5009917;28;20267;-66
2023/08/30 03:21:05;;;;;;;5.50;3.77;;;11.20;99.90;;;;;;5010586;28;20265;-65
2023/08/30 03:23:31;;;;;;;5.23;3.50;;;11.30;99.90;;;;;;5012252;28;20287;-65
2023/08/30 03:25:58;;;;;;;6.10;4.30;;;11.20;99.90;;;;;;5014211;28;20627;-65
2023/08/30 03:28:23;;;;;;;5.83;4.13;;;11.20;99.90;;;;;;5013536;28;20638;-65
2023/08/30 03:30:49;;;;;;;7.00;4.57;;;11.20;99.90;;;;;;5014154;28;20184;-65
2023/08/30 03:33:14;;;;;;;7.63;4.67;;;11.30;99.90;;;;;;5014115;28;20207;-65
2023/08/30 03:35:40;;;;;;;7.23;4.67;;;11.20;99.90;;;;;;5013976;28;20210;-65
2023/08/30 03:38:05;;;;;;;9.67;5.00;;;11.20;99.90;;;;;;5012454;28;20169;-65
2023/08/30 03:40:31;;;;;;;11.77;5.07;;;11.20;99.90;;;;;;5012704;28;20157;-65
2023/08/30 03:42:56;;;;;;;10.23;4.63;;;11.10;99.90;;;;;;5013811;28;20181;-65
2023/08/30 03:45:22;;;;;;;13.37;4.80;;;11.00;99.90;;;;;;5013908;28;20271;-65
2023/08/30 03:47:48;;;;;;;17.13;5.90;;;11.00;99.90;;;;;;5013297;28;20255;-65
2023/08/30 03:50:13;;;;;;;9.73;4.77;;;11.00;99.90;;;;;;5013826;28;20255;-65
2023/08/30 03:52:39;;;;;;;8.10;5.17;;;11.00;99.90;;;;;;5013148;28;20540;-65
2023/08/30 03:55:04;;;;;;;9.00;4.97;;;10.90;99.90;;;;;;5013681;28;20215;-65
2023/08/30 03:57:30;;;;;;;7.07;4.63;;;10.90;99.90;;;;;;5013000;28;20176;-65
2023/08/30 03:59:55;;;;;;;6.73;4.40;;;10.90;99.90;;;;;;5013562;28;20230;-65
2023/08/30 04:02:21;;;;;;;13.40;4.87;;;10.80;99.90;;;;;;5013611;28;20176;-65
2023/08/30 04:04:48;;;;;;;8.53;4.23;;;10.80;99.90;;;;;;5013529;28;20197;-65
2023/08/30 04:07:14;;;;;;;6.33;3.20;;;10.80;99.90;;;;;;5010245;28;20235;-65
2023/08/30 04:09:39;;;;;;;5.93;4.00;;;10.70;99.90;;;;;;5013687;28;20168;-65
2023/08/30 04:12:05;;;;;;;5.17;2.97;;;10.70;99.90;;;;;;5013464;28;20527;-65
2023/08/30 04:14:31;;;;;;;4.07;3.10;;;10.70;99.90;;;;;;5013001;28;20240;-65
2023/08/30 04:16:56;;;;;;;4.57;3.20;;;10.70;99.90;;;;;;5012819;28;20216;-65
2023/08/30 04:19:22;;;;;;;6.83;3.80;;;10.70;99.90;;;;;;5012983;28;20177;-65
2023/08/30 04:21:47;;;;;;;6.67;4.10;;;10.60;99.90;;;;;;5012012;28;20181;-65
2023/08/30 04:24:14;;;;;;;10.30;3.83;;;10.70;99.90;;;;;;5012151;28;20576;-65
2023/08/30 04:26:40;;;;;;;7.63;3.70;;;10.70;99.90;;;;;;5013137;28;20537;-65
2023/08/30 04:29:05;;;;;;;7.07;3.70;;;10.70;99.90;;;;;;5010997;28;20177;-65
2023/08/30 04:31:31;;;;;;;5.23;3.87;;;10.70;99.90;;;;;;5011824;28;20185;-65
2023/08/30 04:33:56;;;;;;;4.20;3.20;;;10.80;99.90;;;;;;5012643;28;20193;-66
2023/08/30 04:36:22;;;;;;;6.73;4.00;;;10.80;99.90;;;;;;4999151;28;20191;-65
2023/08/30 04:38:47;;;;;;;4.63;3.20;;;10.80;99.90;;;;;;4992748;28;20179;-65
2023/08/30 04:41:13;;;;;;;4.90;3.57;;;10.90;99.90;;;;;;4993422;28;20227;-65
2023/08/30 04:43:38;;;;;;;5.00;3.57;;;10.90;99.90;;;;;;4993155;28;20686;-66
2023/08/30 04:46:04;;;;;;;6.37;3.33;;;11.00;99.90;;;;;;4993286;28;20645;-65
2023/08/30 04:48:30;;;;;;;4.50;3.10;;;11.10;99.90;;;;;;4992566;28;20702;-65
2023/08/30 04:51:00;;;;;;;5.53;3.50;;;11.10;99.90;;;;;;4993380;28;20696;-65
2023/08/30 04:53:25;;;;;;;4.73;3.40;;;11.10;99.90;;;;;;4992893;28;20429;-65
2023/08/30 04:55:51;;;;;;;6.83;3.10;;;11.20;99.90;;;;;;4992078;28;20578;-66
2023/08/30 04:58:16;;;;;;;5.37;3.33;;;11.20;99.90;;;;;;4991693;28;20586;-65
2023/08/30 05:00:42;;;;;;;4.50;3.03;;;11.20;99.90;;;;;;4992580;28;20643;-65
2023/08/30 05:03:07;;;;;;;6.70;3.23;;;11.30;99.90;;;;;;4992192;28;20201;-65
2023/08/30 05:05:34;;;;;;;8.50;3.90;;;11.30;99.90;;;;;;4992130;28;20204;-65
2023/08/30 05:07:59;;;;;;;8.17;3.70;;;11.30;99.90;;;;;;4991620;28;20192;-65
2023/08/30 05:10:25;;;;;;;5.47;3.80;;;11.30;99.90;;;;;;4992134;28;20268;-65
2023/08/30 05:12:51;;;;;;;5.53;3.73;;;11.30;99.90;;;;;;4991713;28;20193;-65
2023/08/30 05:15:17;;;;;;;5.67;3.93;;;11.30;99.90;;;;;;4990535;28;20200;-65
2023/08/30 05:17:43;;;;;;;13.07;4.00;;;11.30;99.90;;;;;;4991474;28;20324;-65
2023/08/30 05:20:09;;;;;;;5.47;4.00;;;11.30;99.90;;;;;;4990643;28;20260;-65
2023/08/30 05:22:35;;;;;;;6.30;4.10;;;11.30;99.90;;;;;;4990458;28;20200;-65
2023/08/30 05:25:01;;;;;;;8.70;3.90;;;11.30;99.90;;;;;;4991824;28;20248;-65
2023/08/30 05:27:27;;;;;;;9.20;4.33;;;11.30;99.90;;;;;;4991159;28;20173;-65
2023/08/30 05:29:52;;;;;;;9.40;4.23;;;11.40;99.90;;;;;;4991615;28;20177;-65
2023/08/30 05:32:18;;;;;;;5.00;3.90;;;11.50;99.90;;;;;;4991784;28;20185;-65
2023/08/30 05:34:44;;;;;;;7.20;4.50;;;11.60;99.90;;;;;;4991591;28;20656;-66
2023/08/30 05:37:09;;;;;;;5.43;3.70;;;11.70;99.90;;;;;;4991314;28;20185;-65
2023/08/30 05:39:35;;;;;;;8.53;4.20;;;11.80;99.90;;;;;;4991636;28;20178;-66
2023/08/30 05:42:00;;;;;;;5.37;4.00;;;11.70;99.90;;;;;;4991522;28;20611;-66
2023/08/30 05:44:26;;;;;;;7.73;4.57;;;11.80;99.90;;;;;;4990160;28;20209;-66
2023/08/30 05:46:51;;;;;;;7.73;4.60;;;11.90;99.90;;;;;;4990607;28;20189;-65
2023/08/30 05:49:17;;;;;;;10.23;4.60;;;11.80;99.90;;;;;;4991323;28;20181;-65
2023/08/30 05:51:42;;;;;;;8.13;4.60;;;11.90;99.90;;;;;;4991558;28;20177;-66
2023/08/30 05:54:08;;;;;;;9.07;4.83;;;11.90;99.90;;;;;;4989945;28;20209;-66
2023/08/30 05:56:33;;;;;;;7.63;4.47;;;11.90;99.90;;;;;;4991239;28;20268;-66
2023/08/30 05:58:59;;;;;;;7.90;4.73;;;12.00;99.90;;;;;;4990527;28;20181;-66
2023/08/30 06:01:25;;;;;;;6.77;4.37;;;12.00;99.90;;;;;;4991296;28;20191;-66
2023/08/30 06:03:50;;;;;;;24.90;10.13;;;12.00;99.90;;;;;;4991142;28;20606;-66
2023/08/30 06:06:16;;;;;;;6.87;4.73;;;12.10;99.90;;;;;;4991538;28;20181;-65
2023/08/30 06:08:42;;;;;;;6.03;3.93;;;12.20;99.90;;;;;;4990544;28;20189;-66
2023/08/30 06:11:07;;;;;;;7.70;4.50;;;12.30;99.90;;;;;;4991345;28;20174;-65
2023/08/30 06:13:33;;;;;;;7.17;5.00;;;12.30;99.90;;;;;;5001279;28;20216;-65
2023/08/30 06:15:59;;;;;;;8.37;4.50;;;12.40;99.90;;;;;;5009364;28;20654;-66
2023/08/30 06:18:24;;;;;;;13.73;5.00;;;12.50;99.90;;;;;;5010111;28;20520;-66
2023/08/30 06:20:50;;;;;;;9.17;5.20;;;12.60;99.90;;;;;;5010235;28;20701;-66
2023/08/30 06:23:18;;;;;;;9.20;4.90;;;12.70;99.90;;;;;;5010363;28;20637;-66
2023/08/30 06:25:44;;;;;;;9.03;5.07;;;12.80;99.90;;;;;;5010295;28;20741;-66
2023/08/30 06:28:09;;;;;;;9.27;4.30;;;12.80;99.90;;;;;;5009614;28;20255;-66
2023/08/30 06:30:35;;;;;;;6.70;4.20;;;12.90;99.90;;;;;;5010228;28;20250;-66
2023/08/30 06:33:01;;;;;;;7.13;4.30;;;12.90;99.90;;;;;;5008990;28;20260;-66
2023/08/30 06:35:26;;;;;;;9.43;4.30;;;12.90;99.90;;;;;;5010134;28;20299;-66
2023/08/30 06:37:52;;;;;;;6.77;4.83;;;12.90;99.90;;;;;;5009684;28;20173;-65
2023/08/30 06:40:18;;;;;;;12.17;5.53;;;13.10;99.90;;;;;;5008888;28;20207;-65
2023/08/30 06:42:43;;;;;;;7.93;4.90;;;13.20;99.90;;;;;;5010261;28;20256;-66
2023/08/30 06:45:09;;;;;;;10.10;5.20;;;13.40;99.90;;;;;;5010343;28;20177;-66
2023/08/30 06:47:34;;;;;;;10.87;5.63;;;13.70;99.90;;;;;;5008289;28;20256;-66
2023/08/30 06:50:00;;;;;;;9.07;5.27;;;13.70;99.90;;;;;;5010116;28;20180;-66
2023/08/30 06:52:25;;;;;;;11.83;5.60;;;13.60;99.90;;;;;;5008816;28;20181;-66
2023/08/30 06:54:51;;;;;;;11.07;6.37;;;13.60;99.90;;;;;;5009960;28;20220;-66
2023/08/30 06:57:17;;;;;;;10.40;6.03;;;13.70;99.90;;;;;;5011082;28;20180;-66
2023/08/30 06:59:42;;;;;;;13.33;6.17;;;13.70;99.90;;;;;;5013794;28;20184;-66
2023/08/30 07:02:08;;;;;;;16.93;6.30;;;13.80;99.90;;;;;;5014051;28;20180;-66
2023/08/30 07:04:33;;;;;;;9.53;5.67;;;13.90;99.90;;;;;;5012510;28;20208;-66
2023/08/30 07:06:59;;;;;;;9.60;6.00;;;13.90;99.90;;;;;;5012281;28;20200;-66
2023/08/30 07:09:28;;;;;;;15.57;7.53;;;14.20;99.90;;;;;;5014071;28;20176;-66
2023/08/30 07:11:55;;;;;;;15.20;7.20;;;14.30;99.90;;;;;;5014067;28;20259;-66
2023/08/30 07:14:20;;;;;;;18.03;7.83;;;14.40;99.90;;;;;;5013463;28;20735;-66
2023/08/30 07:16:46;;;;;;;13.60;7.70;;;14.60;99.90;;;;;;5013253;28;20252;-66
2023/08/30 07:19:11;;;;;;;16.23;7.80;;;14.70;99.90;;;;;;5013395;28;20180;-65
2023/08/30 07:21:38;;;;;;;18.97;7.47;;;14.60;99.90;;;;;;5013640;28;20177;-66
2023/08/30 07:24:05;;;;;;;14.23;7.50;;;14.60;99.90;;;;;;5013605;28;20204;-66
2023/08/30 07:26:31;;;;;;;16.70;8.50;;;14.60;99.90;;;;;;5013458;28;20189;-65
2023/08/30 07:28:56;;;;;;;22.97;9.13;;;14.40;99.90;;;;;;5011671;28;20662;-66
2023/08/30 07:31:22;;;;;;;19.30;10.03;;;14.40;99.90;;;;;;5011894;28;20418;-67
2023/08/30 07:33:48;;;;;;;25.80;10.23;;;14.40;99.90;;;;;;5013106;28;20982;-67
2023/08/30 07:36:13;;;;;;;21.20;9.60;;;14.50;99.90;;;;;;5013669;28;20702;-67
2023/08/30 07:38:39;;;;;;;23.43;10.03;;;14.50;99.90;;;;;;5012669;28;20183;-66
2023/08/30 07:41:04;;;;;;;22.53;10.33;;;14.60;99.90;;;;;;5013052;28;20184;-66
2023/08/30 07:43:30;;;;;;;21.57;10.03;;;14.80;99.90;;;;;;5012964;28;20200;-67
2023/08/30 07:45:56;;;;;;;25.57;10.63;;;14.80;99.90;;;;;;5013095;28;20267;-67
2023/08/30 07:48:22;;;;;;;22.90;10.10;;;14.70;99.90;;;;;;5012358;28;20211;-66
2023/08/30 07:50:47;;;;;;;22.50;11.03;;;14.70;99.90;;;;;;5012893;28;20196;-66
2023/08/30 07:53:13;;;;;;;22.33;11.13;;;14.50;99.90;;;;;;5012960;28;20295;-66
2023/08/30 07:55:38;;;;;;;29.30;11.23;;;14.50;99.90;;;;;;5012914;28;20239;-66
2023/08/30 07:58:04;;;;;;;19.57;10.80;;;14.50;99.90;;;;;;5011510;28;20249;-66
2023/08/30 08:00:30;;;;;;;27.60;11.03;;;14.60;99.90;;;;;;5010445;28;20251;-66
2023/08/30 08:02:55;;;;;;;25.73;11.37;;;14.70;99.90;;;;;;5012770;28;20179;-66
2023/08/30 08:05:21;;;;;;;26.30;12.53;;;14.70;99.90;;;;;;5012337;28;20203;-66
2023/08/30 08:07:51;;;;;;;21.77;11.20;;;14.80;99.90;;;;;;5011224;28;20228;-66
2023/08/30 08:10:17;;;;;;;23.10;12.00;;;14.90;99.90;;;;;;5010799;28;20156;-66
2023/08/30 08:12:42;;;;;;;26.17;12.27;;;15.00;99.90;;;;;;5012654;28;20246;-66
2023/08/30 08:15:08;;;;;;;23.37;11.67;;;15.10;99.90;;;;;;5012531;28;20298;-66
2023/08/30 08:17:33;;;;;;;22.93;11.77;;;15.10;99.90;;;;;;5012252;28;20268;-66
2023/08/30 08:19:59;;;;;;;19.40;11.63;;;15.20;99.90;;;;;;5012400;28;20652;-66
2023/08/30 08:22:24;;;;;;;23.37;12.10;;;15.20;99.90;;;;;;5012726;28;20573;-66
2023/08/30 08:24:51;;;;;;;22.43;12.20;;;15.10;99.90;;;;;;5012540;28;20215;-66
2023/08/30 08:27:17;;;;;;;28.97;12.03;;;15.10;99.90;;;;;;5012001;28;20604;-66
2023/08/30 08:29:42;;;;;;;23.50;11.93;;;15.20;99.90;;;;;;5012257;28;20618;-65
2023/08/30 08:32:08;;;;;;;21.87;12.20;;;15.40;99.90;;;;;;5012226;28;20263;-66
2023/08/30 08:34:34;;;;;;;22.97;12.47;;;15.70;99.90;;;;;;5012356;28;20299;-66
2023/08/30 08:36:59;;;;;;;23.67;12.93;;;16.00;99.90;;;;;;5010334;28;20253;-66
2023/08/30 08:39:25;;;;;;;21.40;11.60;;;15.70;99.90;;;;;;5012166;28;20180;-66
2023/08/30 08:41:52;;;;;;;22.33;12.10;;;15.70;99.90;;;;;;5012128;28;20172;-66
2023/08/30 08:44:18;;;;;;;23.30;12.63;;;15.80;99.90;;;;;;5011772;28;20534;-66
2023/08/30 08:46:44;;;;;;;26.67;12.03;;;15.80;99.90;;;;;;5011493;28;20646;-66
2023/08/30 08:49:14;;;;;;;20.67;11.50;;;15.90;99.90;;;;;;5010677;28;20208;-66
2023/08/30 08:51:39;;;;;;;22.00;11.80;;;16.00;99.90;;;;;;5010894;28;20256;-66
2023/08/30 08:54:05;;;;;;;21.87;11.83;;;16.20;99.90;;;;;;5011911;28;20693;-66
2023/08/30 08:56:32;;;;;;;21.27;11.30;;;16.40;99.90;;;;;;5011624;28;20235;-66
2023/08/30 08:58:57;;;;;;;19.93;10.53;;;16.70;99.90;;;;;;5011222;28;20164;-67
2023/08/30 09:01:24;;;;;;;17.03;9.73;;;17.20;99.90;;;;;;5010376;28;20219;-66
2023/08/30 09:03:50;;;;;;;18.23;10.47;;;17.50;99.90;;;;;;5010357;28;20188;-66
2023/08/30 09:06:16;;;;;;;14.47;9.13;;;18.00;99.90;;;;;;5011820;28;20199;-66
2023/08/30 09:08:41;;;;;;;18.67;9.07;;;18.90;99.90;;;;;;5009567;28;20654;-66
2023/08/30 09:11:07;;;;;;;18.80;9.57;;;20.00;99.90;;;;;;5010480;28;20184;-66
2023/08/30 09:13:32;;;;;;;16.53;9.73;;;20.50;99.90;;;;;;5011153;28;20223;-67
2023/08/30 09:15:58;;;;;;;13.93;8.03;;;21.00;99.90;;;;;;5011334;28;20214;-67
2023/08/30 09:18:27;;;;;;;16.37;8.90;;;21.60;99.90;;;;;;5009668;28;20222;-67
2023/08/30 09:20:53;;;;;;;14.13;8.50;;;22.10;99.90;;;;;;5009758;28;20545;-67
2023/08/30 09:23:20;;;;;;;13.53;8.33;;;22.40;99.90;;;;;;5010440;28;20197;-67
2023/08/30 09:25:45;;;;;;;14.27;8.00;;;22.70;99.90;;;;;;5011176;28;20568;-67
2023/08/30 09:28:11;;;;;;;12.60;8.30;;;23.00;99.90;;;;;;5009531;28;20687;-67
2023/08/30 09:30:36;;;;;;;11.07;7.17;;;23.00;99.90;;;;;;5011068;28;20324;-67
2023/08/30 09:33:02;;;;;;;13.43;7.60;;;23.20;99.90;;;;;;5011102;28;20248;-66
2023/08/30 09:35:28;;;;;;;15.30;7.33;;;23.30;99.90;;;;;;5009829;28;20209;-67
2023/08/30 09:37:54;;;;;;;19.93;6.70;;;23.20;99.90;;;;;;5010901;28;20268;-67
2023/08/30 09:40:20;;;;;;;11.57;7.23;;;23.60;99.90;;;;;;5011163;28;20192;-67
2023/08/30 09:42:45;;;;;;;8.57;6.07;;;24.10;99.90;;;;;;5010915;28;20169;-67
2023/08/30 09:45:22;;;;;;;10.87;6.53;;;24.70;99.90;;;;;;5009638;28;20172;-67
2023/08/30 09:47:50;;;;;;;6.73;4.93;;;24.90;99.90;;;;;;5009066;28;20184;-67
2023/08/30 09:50:19;;;;;;;8.83;5.50;;;25.10;99.90;;;;;;5011113;28;20184;-67
2023/08/30 09:52:47;;;;;;;9.30;4.70;;;25.70;99.90;;;;;;5010900;28;20231;-67
2023/08/30 09:55:12;;;;;;;7.53;4.37;;;25.70;99.90;;;;;;5010795;28;20208;-67
2023/08/30 09:57:38;;;;;;;8.17;3.57;;;26.10;99.90;;;;;;5008800;28;20223;-66
2023/08/30 10:00:05;;;;;;;4.70;3.03;;;25.50;99.90;;;;;;5009288;28;20172;-66
2023/08/30 10:02:31;;;;;;;5.63;2.70;;;24.40;99.90;;;;;;5008534;28;20527;-66
2023/08/30 10:04:57;;;;;;;4.20;2.30;;;23.50;99.90;;;;;;5008073;28;20664;-66
2023/08/30 10:07:22;;;;;;;4.77;2.90;;;23.50;99.90;;;;;;5008432;28;20215;-66
2023/08/30 10:09:48;;;;;;;3.23;2.37;;;23.90;99.90;;;;;;5010669;28;20182;-66
2023/08/30 10:12:13;;;;;;;5.53;2.73;;;24.00;99.90;;;;;;4992975;28;20226;-66
2023/08/30 10:14:39;;;;;;;4.67;2.37;;;23.40;99.90;;;;;;5008760;28;20304;-66
2023/08/30 10:17:04;;;;;;;3.17;2.33;;;23.20;99.90;;;;;;5010022;28;20206;-66
2023/08/30 10:19:30;;;;;;;5.50;3.03;;;23.00;99.90;;;;;;5009132;28;20192;-66
2023/08/30 10:21:59;;;;;;;3.77;2.33;;;22.50;99.90;;;;;;5008940;28;20174;-66
2023/08/30 10:24:25;;;;;;;3.93;2.57;;;22.10;99.90;;;;;;5010231;28;20208;-66
2023/08/30 10:26:50;;;;;;;3.87;2.50;;;21.70;99.90;;;;;;5009664;28;20173;-66
2023/08/30 10:29:16;;;;;;;5.40;3.23;;;21.20;99.90;;;;;;5008640;28;20173;-66
2023/08/30 10:31:41;;;;;;;10.80;3.50;;;20.80;99.90;;;;;;5008597;28;20177;-66
2023/08/30 10:34:16;;;;;;;8.50;3.10;;;20.40;99.90;;;;;;5010033;28;20196;-66
2023/08/30 10:36:43;;;;;;;6.60;3.30;;;20.10;99.90;;;;;;5008548;28;20183;-66
2023/08/30 10:39:13;;;;;;;4.67;3.00;;;20.20;99.90;;;;;;5009888;28;20207;-67
2023/08/30 10:41:41;;;;;;;7.23;3.20;;;20.20;99.90;;;;;;5008881;28;20932;-66
2023/08/30 10:44:07;;;;;;;7.03;3.50;;;20.10;99.90;;;;;;5008614;28;20192;-66
2023/08/30 10:46:33;;;;;;;6.03;3.60;;;20.00;99.90;;;;;;5010002;28;20181;-66
2023/08/30 10:49:14;;;;;;;5.50;3.33;;;20.00;99.90;;;;;;5008261;28;20204;-66
2023/08/30 10:51:40;;;;;;;5.63;3.23;;;20.10;99.90;;;;;;5008890;28;20184;-66
2023/08/30 10:54:15;;;;;;;7.63;2.70;;;20.50;99.90;;;;;;5009784;28;20199;-66
2023/08/30 10:56:48;;;;;;;4.27;2.77;;;20.70;99.90;;;;;;5009837;28;20172;-66
2023/08/30 10:59:20;;;;;;;6.07;2.90;;;20.90;99.90;;;;;;5010102;28;20168;-66
2023/08/30 11:01:46;;;;;;;4.57;2.77;;;21.30;99.90;;;;;;5008736;28;20211;-66
2023/08/30 11:04:12;;;;;;;7.30;2.70;;;22.20;99.90;;;;;;5009641;28;20197;-67
2023/08/30 11:06:39;;;;;;;3.27;2.27;;;22.90;99.90;;;;;;5008418;28;20169;-66
2023/08/30 11:09:04;;;;;;;6.93;2.40;;;22.90;99.90;;;;;;5009396;28;20516;-67
2023/08/30 11:11:30;;;;;;;3.40;2.40;;;22.90;99.90;;;;;;5008414;28;20180;-67
2023/08/30 11:14:04;;;;;;;5.20;2.53;;;22.70;99.90;;;;;;5008187;28;20263;-66
2023/08/30 11:16:29;;;;;;;3.20;2.27;;;22.70;99.90;;;;;;5009720;28;20157;-66
2023/08/30 11:18:55;;;;;;;3.33;1.93;;;22.90;99.90;;;;;;5008136;28;20180;-65
2023/08/30 11:21:20;;;;;;;4.53;2.00;;;23.20;99.90;;;;;;5009806;28;20578;-65
2023/08/30 11:23:46;;;;;;;3.00;2.03;;;23.20;99.90;;;;;;5009503;28;20571;-66
2023/08/30 11:26:12;;;;;;;5.13;2.30;;;23.10;99.90;;;;;;5008219;28;20187;-65
2023/08/30 11:28:43;;;;;;;4.33;2.30;;;23.10;99.90;;;;;;5007990;28;20521;-66
2023/08/30 11:31:09;;;;;;;4.00;2.13;;;23.20;99.90;;;;;;5008534;28;20166;-66
2023/08/30 11:33:34;;;;;;;6.03;2.53;;;23.20;99.90;;;;;;5009443;28;20209;-65
2023/08/30 11:36:01;;;;;;;7.40;2.70;;;23.00;99.90;;;;;;5009419;28;20201;-66
2023/08/30 11:38:26;;;;;;;9.10;2.53;;;22.90;99.90;;;;;;5009114;28;20199;-66
2023/08/30 11:40:52;;;;;;;5.63;2.47;;;22.80;99.90;;;;;;5008130;28;20721;-66
2023/08/30 11:43:18;;;;;;;5.63;2.30;;;22.80;99.90;;;;;;5008110;28;20193;-66
2023/08/30 11:45:43;;;;;;;5.27;2.57;;;22.70;99.90;;;;;;5011585;28;20648;-66
2023/08/30 11:48:09;;;;;;;4.73;2.43;;;23.00;99.90;;;;;;5012354;28;20565;-66
2023/08/30 11:50:34;;;;;;;4.20;2.10;;;23.10;99.90;;;;;;5011566;28;20528;-66
2023/08/30 11:53:00;;;;;;;3.60;2.17;;;22.90;99.90;;;;;;5011622;28;20173;-67
2023/08/30 11:55:25;;;;;;;5.50;2.50;;;23.00;99.90;;;;;;5011692;28;20211;-67
2023/08/30 11:57:51;;;;;;;7.00;2.73;;;23.00;99.90;;;;;;5012404;28;20182;-67
2023/08/30 12:00:18;;;;;;;5.20;2.50;;;22.80;99.90;;;;;;5011523;28;20200;-67
2023/08/30 12:02:44;;;;;;;5.90;2.70;;;22.50;99.90;;;;;;5012719;28;20173;-67
2023/08/30 12:05:13;;;;;;;4.50;2.80;;;22.10;99.90;;;;;;5011630;28;20263;-67
2023/08/30 12:07:40;;;;;;;6.17;2.77;;;21.90;99.90;;;;;;5012127;28;20181;-66
2023/08/30 12:10:10;;;;;;;4.80;2.40;;;21.70;99.90;;;;;;5012789;28;20164;-67
2023/08/30 12:12:36;;;;;;;3.80;2.30;;;21.50;99.90;;;;;;5012842;28;20647;-67
2023/08/30 12:15:11;;;;;;;4.67;2.50;;;21.10;99.90;;;;;;5011120;28;20863;-67
2023/08/30 12:17:37;;;;;;;6.07;2.40;;;21.10;99.90;;;;;;5011951;28;20729;-67
2023/08/30 12:20:03;;;;;;;4.23;2.57;;;21.30;99.90;;;;;;5011740;28;20271;-67
2023/08/30 12:22:48;;;;;;;3.77;2.47;;;21.50;99.90;;;;;;5012731;28;20149;-66
2023/08/30 12:25:20;;;;;;;4.23;2.10;;;21.80;99.90;;;;;;5012603;28;20161;-67
2023/08/30 12:27:46;;;;;;;7.57;2.60;;;22.00;99.90;;;;;;5011912;28;20639;-67
2023/08/30 12:30:13;;;;;;;5.23;2.43;;;22.20;99.90;;;;;;5012393;28;20177;-68
2023/08/30 12:32:38;;;;;;;5.37;2.90;;;22.20;99.90;;;;;;5012366;28;20576;-66
2023/08/30 12:35:04;;;;;;;7.40;2.80;;;22.10;99.90;;;;;;5012203;28;20204;-67
2023/08/30 12:37:30;;;;;;;5.50;2.77;;;21.60;99.90;;;;;;5011545;28;20181;-67
2023/08/30 12:39:55;;;;;;;5.80;2.57;;;21.10;99.90;;;;;;5012179;28;20183;-66